Pombal, Brazil
Current Conditions -  °F | °C
As of 6:00 PM on Tuesday 27 Jan 2015 (Local Time) from SBJU Reporting Station
Clear Clear  
Wind Chill: 97°   Ceiling: Unl
Heat Index: 97°   Visibility: 6mi
Dew Point: 61°   Wind: 0mph
Humidity: 30%   Direction: NA
Pressure: 29.91"   Gusts: NA
Location:  6.77°S, 37.8°W
Report Text: SBJU 272100Z 00000KT CAVOK 36/16 Q1013
Loading
Personal Weather Stations






























Interactive Weather Map New forecast layout! Learn more

10-Day Weather Forecast

Advertisements
Track Severe Weather on mobile